This is the latest recevied weather packets stored in our database for station/object OE3TEC-15. If no packets are shown the sender has not sent any weather packets the latest 1 day(s).
| Time | Temp. | Humidity | Pressure | Rain* | Wind** | Luminosity | Snow |
|---|---|---|---|---|---|---|---|
| 1778038370 | 13.33° C | 80% | 1009.1 hPa | 0 mm | - | 4 W/m² | - |
| 1778037762 | 12.78° C | 82% | 1008.9 hPa | 0 mm | - | 1 W/m² | - |
| 1778037155 | 12.78° C | 80% | 1009.1 hPa | 0 mm | - | 0 W/m² | - |
| 1778036547 | 13.89° C | 77% | 1009.1 hPa | 0 mm | - | 0 W/m² | - |
| 1778035940 | 13.89° C | 77% | 1009.1 hPa | 0 mm | - | 0 W/m² | - |
| 1778033512 | 15° C | 72% | 1008.8 hPa | 0 mm | - | 0 W/m² | - |
| 1778032297 | 16.67° C | 67% | 1008.8 hPa | 0 mm | - | 0 W/m² | - |
| 1778031689 | 16.67° C | 67% | 1008.9 hPa | 0 mm | - | 0 W/m² | - |
| 1778030475 | 16.67° C | 64% | 1008.7 hPa | 0 mm | - | 0 W/m² | - |
| 1778029868 | 16.67° C | 64% | 1008.8 hPa | 0 mm | - | 0 W/m² | - |
| 1778029260 | 16.67° C | 64% | 1008.6 hPa | 0 mm | - | 0 W/m² | - |
| 1778028045 | 16.11° C | 65% | 1008.3 hPa | 0 mm | - | 0 W/m² | - |
| 1778027438 | 13.33° C | 75% | 1008.1 hPa | 0 mm | - | 0 W/m² | - |
| 1778026832 | 13.89° C | 73% | 1007.9 hPa | 0 mm | - | 0 W/m² | - |
| 1778023795 | 13.89° C | 71% | 1007.3 hPa | 0 mm | - | 0 W/m² | - |
| 1778023187 | 13.33° C | 73% | 1007.4 hPa | 0 mm | - | 0 W/m² | - |
| 1778022580 | 13.33° C | 73% | 1007.3 hPa | 0 mm | - | 0 W/m² | - |
| 1778021973 | 12.78° C | 75% | 1007.2 hPa | 0 mm | - | 0 W/m² | - |
| 1778018938 | 12.78° C | 72% | 1006.5 hPa | 0 mm | - | 0 W/m² | - |
| 1778018331 | 13.89° C | 68% | 1006.2 hPa | 0 mm | - | 0 W/m² | - |
| 1778017724 | 14.44° C | 64% | 1006.2 hPa | 0 mm | - | 0 W/m² | - |
| 1778012865 | 16.67° C | 57% | 1005.5 hPa | 0 mm | - | 0 W/m² | - |
| 1778012258 | 16.67° C | 56% | 1005.1 hPa | 0 mm | - | 0 W/m² | - |
* Rain latest hour (hover to see other rain measurements)
** Current wind speed in m/s (hover to see current wind gust speed)